sensor_id;sensor_type;location;lat;lon;timestamp;temperature;humidity
19200;DHT22;9732;52.498;5.408;2023-11-18T00:02:15;7.10;99.90
19200;DHT22;9732;52.498;5.408;2023-11-18T00:04:45;7.10;99.90
19200;DHT22;9732;52.498;5.408;2023-11-18T00:07:13;7.10;99.90
19200;DHT22;9732;52.498;5.408;2023-11-18T00:09:40;7.10;99.90
19200;DHT22;9732;52.498;5.408;2023-11-18T00:12:12;7.10;99.90
19200;DHT22;9732;52.498;5.408;2023-11-18T00:14:40;7.20;99.90
19200;DHT22;9732;52.498;5.408;2023-11-18T00:17:08;7.10;99.90
19200;DHT22;9732;52.498;5.408;2023-11-18T00:19:36;7.10;99.90
19200;DHT22;9732;52.498;5.408;2023-11-18T00:22:04;7.10;99.90
19200;DHT22;9732;52.498;5.408;2023-11-18T00:24:32;7.10;99.90
19200;DHT22;9732;52.498;5.408;2023-11-18T00:27:00;7.10;99.90
19200;DHT22;9732;52.498;5.408;2023-11-18T00:29:31;7.10;99.90
19200;DHT22;9732;52.498;5.408;2023-11-18T00:31:58;7.00;99.90
19200;DHT22;9732;52.498;5.408;2023-11-18T00:34:25;7.10;99.90
19200;DHT22;9732;52.498;5.408;2023-11-18T00:36:52;7.10;99.90
19200;DHT22;9732;52.498;5.408;2023-11-18T00:39:22;7.10;99.90
19200;DHT22;9732;52.498;5.408;2023-11-18T00:41:49;7.10;99.90
19200;DHT22;9732;52.498;5.408;2023-11-18T00:44:16;7.10;99.90
19200;DHT22;9732;52.498;5.408;2023-11-18T00:46:43;7.10;99.90
19200;DHT22;9732;52.498;5.408;2023-11-18T00:49:11;7.10;99.90
19200;DHT22;9732;52.498;5.408;2023-11-18T00:51:38;7.10;99.90
19200;DHT22;9732;52.498;5.408;2023-11-18T00:54:07;7.10;99.90
19200;DHT22;9732;52.498;5.408;2023-11-18T00:56:36;7.00;99.90
19200;DHT22;9732;52.498;5.408;2023-11-18T00:59:03;6.90;99.90
19200;DHT22;9732;52.498;5.408;2023-11-18T01:01:32;6.90;99.90
19200;DHT22;9732;52.498;5.408;2023-11-18T01:03:59;7.00;99.90
19200;DHT22;9732;52.498;5.408;2023-11-18T01:06:26;6.90;99.90
19200;DHT22;9732;52.498;5.408;2023-11-18T01:08:54;6.90;99.90
19200;DHT22;9732;52.498;5.408;2023-11-18T01:11:21;7.00;99.90
19200;DHT22;9732;52.498;5.408;2023-11-18T01:13:51;7.00;99.90
19200;DHT22;9732;52.498;5.408;2023-11-18T01:16:20;7.00;99.90
19200;DHT22;9732;52.498;5.408;2023-11-18T01:18:47;7.00;99.90
19200;DHT22;9732;52.498;5.408;2023-11-18T01:21:14;7.00;99.90
19200;DHT22;9732;52.498;5.408;2023-11-18T01:23:42;7.00;99.90
19200;DHT22;9732;52.498;5.408;2023-11-18T01:26:10;7.00;99.90
19200;DHT22;9732;52.498;5.408;2023-11-18T01:28:38;7.10;99.90
19200;DHT22;9732;52.498;5.408;2023-11-18T01:31:09;7.10;99.90
19200;DHT22;9732;52.498;5.408;2023-11-18T01:33:36;7.10;99.90
19200;DHT22;9732;52.498;5.408;2023-11-18T01:36:06;7.10;99.90
19200;DHT22;9732;52.498;5.408;2023-11-18T01:38:33;7.20;99.90
19200;DHT22;9732;52.498;5.408;2023-11-18T01:41:00;7.20;99.90
19200;DHT22;9732;52.498;5.408;2023-11-18T01:43:28;7.20;99.90
19200;DHT22;9732;52.498;5.408;2023-11-18T01:45:57;7.20;99.90
19200;DHT22;9732;52.498;5.408;2023-11-18T01:48:28;7.20;99.90
19200;DHT22;9732;52.498;5.408;2023-11-18T01:50:57;7.20;99.90
19200;DHT22;9732;52.498;5.408;2023-11-18T01:53:24;7.20;99.90
19200;DHT22;9732;52.498;5.408;2023-11-18T01:55:51;7.20;99.90
19200;DHT22;9732;52.498;5.408;2023-11-18T01:58:18;7.20;99.90
19200;DHT22;9732;52.498;5.408;2023-11-18T02:00:49;7.20;99.90
19200;DHT22;9732;52.498;5.408;2023-11-18T02:03:16;7.30;99.90
19200;DHT22;9732;52.498;5.408;2023-11-18T02:05:45;7.30;99.90
19200;DHT22;9732;52.498;5.408;2023-11-18T02:08:11;7.20;99.90
19200;DHT22;9732;52.498;5.408;2023-11-18T02:10:45;7.30;99.90
19200;DHT22;9732;52.498;5.408;2023-11-18T02:13:21;7.30;99.90
19200;DHT22;9732;52.498;5.408;2023-11-18T02:15:52;7.30;99.90
19200;DHT22;9732;52.498;5.408;2023-11-18T02:18:20;7.30;99.90
19200;DHT22;9732;52.498;5.408;2023-11-18T02:20:49;7.30;99.90
19200;DHT22;9732;52.498;5.408;2023-11-18T02:23:17;7.30;99.90
19200;DHT22;9732;52.498;5.408;2023-11-18T02:25:46;7.30;99.90
19200;DHT22;9732;52.498;5.408;2023-11-18T02:28:13;7.30;99.90
19200;DHT22;9732;52.498;5.408;2023-11-18T02:30:40;7.30;99.90
19200;DHT22;9732;52.498;5.408;2023-11-18T02:33:12;7.30;99.90
19200;DHT22;9732;52.498;5.408;2023-11-18T02:35:46;7.30;99.90
19200;DHT22;9732;52.498;5.408;2023-11-18T02:38:18;7.30;99.90
19200;DHT22;9732;52.498;5.408;2023-11-18T02:40:47;7.30;99.90
19200;DHT22;9732;52.498;5.408;2023-11-18T02:43:17;7.30;99.90
19200;DHT22;9732;52.498;5.408;2023-11-18T02:45:45;7.30;99.90
19200;DHT22;9732;52.498;5.408;2023-11-18T02:48:12;7.30;99.90
19200;DHT22;9732;52.498;5.408;2023-11-18T02:50:40;7.30;99.90
19200;DHT22;9732;52.498;5.408;2023-11-18T02:53:08;7.30;99.90
19200;DHT22;9732;52.498;5.408;2023-11-18T02:55:35;7.30;99.90
19200;DHT22;9732;52.498;5.408;2023-11-18T02:58:03;7.30;99.90
19200;DHT22;9732;52.498;5.408;2023-11-18T03:00:30;7.30;99.90
19200;DHT22;9732;52.498;5.408;2023-11-18T03:02:57;7.30;99.90
19200;DHT22;9732;52.498;5.408;2023-11-18T03:05:24;7.20;99.90
19200;DHT22;9732;52.498;5.408;2023-11-18T03:07:52;7.30;99.90
19200;DHT22;9732;52.498;5.408;2023-11-18T03:10:22;7.30;99.90
19200;DHT22;9732;52.498;5.408;2023-11-18T03:12:50;7.30;99.90
19200;DHT22;9732;52.498;5.408;2023-11-18T03:15:19;7.20;99.90
19200;DHT22;9732;52.498;5.408;2023-11-18T03:17:47;7.20;99.90
19200;DHT22;9732;52.498;5.408;2023-11-18T03:20:15;7.20;99.90
19200;DHT22;9732;52.498;5.408;2023-11-18T03:22:42;7.20;99.90
19200;DHT22;9732;52.498;5.408;2023-11-18T03:25:10;7.20;99.90
19200;DHT22;9732;52.498;5.408;2023-11-18T03:27:37;7.10;99.90
19200;DHT22;9732;52.498;5.408;2023-11-18T03:30:05;7.20;99.90
19200;DHT22;9732;52.498;5.408;2023-11-18T03:32:34;7.10;99.90
19200;DHT22;9732;52.498;5.408;2023-11-18T03:35:01;7.20;99.90
19200;DHT22;9732;52.498;5.408;2023-11-18T03:37:30;7.20;99.90
19200;DHT22;9732;52.498;5.408;2023-11-18T03:39:56;7.20;99.90
19200;DHT22;9732;52.498;5.408;2023-11-18T03:42:23;7.20;99.90
19200;DHT22;9732;52.498;5.408;2023-11-18T03:44:50;7.20;99.90
19200;DHT22;9732;52.498;5.408;2023-11-18T03:47:16;7.20;99.90
19200;DHT22;9732;52.498;5.408;2023-11-18T03:49:44;7.30;99.90
19200;DHT22;9732;52.498;5.408;2023-11-18T03:52:11;7.30;99.90
19200;DHT22;9732;52.498;5.408;2023-11-18T03:54:38;7.30;99.90
19200;DHT22;9732;52.498;5.408;2023-11-18T03:57:05;7.30;99.90
19200;DHT22;9732;52.498;5.408;2023-11-18T03:59:32;7.30;99.90
19200;DHT22;9732;52.498;5.408;2023-11-18T04:01:58;7.30;99.90
19200;DHT22;9732;52.498;5.408;2023-11-18T04:04:25;7.30;99.90
19200;DHT22;9732;52.498;5.408;2023-11-18T04:06:55;7.30;99.90
19200;DHT22;9732;52.498;5.408;2023-11-18T04:09:22;7.30;99.90
19200;DHT22;9732;52.498;5.408;2023-11-18T04:11:49;7.30;99.90
19200;DHT22;9732;52.498;5.408;2023-11-18T04:14:15;7.30;99.90
19200;DHT22;9732;52.498;5.408;2023-11-18T04:16:44;7.30;99.90
19200;DHT22;9732;52.498;5.408;2023-11-18T04:19:11;7.30;99.90
19200;DHT22;9732;52.498;5.408;2023-11-18T04:21:38;7.30;99.90
19200;DHT22;9732;52.498;5.408;2023-11-18T04:24:07;7.30;99.90
19200;DHT22;9732;52.498;5.408;2023-11-18T04:26:35;7.30;99.90
19200;DHT22;9732;52.498;5.408;2023-11-18T04:29:02;7.20;99.90
19200;DHT22;9732;52.498;5.408;2023-11-18T04:31:29;7.20;99.90
19200;DHT22;9732;52.498;5.408;2023-11-18T04:33:56;7.20;99.90
19200;DHT22;9732;52.498;5.408;2023-11-18T04:36:23;7.20;99.90
19200;DHT22;9732;52.498;5.408;2023-11-18T04:38:52;7.20;99.90
19200;DHT22;9732;52.498;5.408;2023-11-18T04:41:20;7.20;99.90
19200;DHT22;9732;52.498;5.408;2023-11-18T04:43:48;7.20;99.90
19200;DHT22;9732;52.498;5.408;2023-11-18T04:46:15;7.20;99.90
19200;DHT22;9732;52.498;5.408;2023-11-18T04:48:42;7.20;99.90
19200;DHT22;9732;52.498;5.408;2023-11-18T04:51:09;7.20;99.90
19200;DHT22;9732;52.498;5.408;2023-11-18T04:53:37;7.30;99.90
19200;DHT22;9732;52.498;5.408;2023-11-18T04:56:05;7.30;99.90
19200;DHT22;9732;52.498;5.408;2023-11-18T05:01:04;7.30;99.90
19200;DHT22;9732;52.498;5.408;2023-11-18T05:03:30;7.30;99.90
19200;DHT22;9732;52.498;5.408;2023-11-18T05:05:57;7.20;99.90
19200;DHT22;9732;52.498;5.408;2023-11-18T05:08:24;7.20;99.90
19200;DHT22;9732;52.498;5.408;2023-11-18T05:10:51;7.20;99.90
19200;DHT22;9732;52.498;5.408;2023-11-18T05:13:17;7.20;99.90
19200;DHT22;9732;52.498;5.408;2023-11-18T05:15:46;7.20;99.90
19200;DHT22;9732;52.498;5.408;2023-11-18T05:18:14;7.20;99.90
19200;DHT22;9732;52.498;5.408;2023-11-18T05:20:41;7.20;99.90
19200;DHT22;9732;52.498;5.408;2023-11-18T05:23:07;7.40;99.90
19200;DHT22;9732;52.498;5.408;2023-11-18T05:25:35;7.20;99.90
19200;DHT22;9732;52.498;5.408;2023-11-18T05:28:03;7.20;99.90
19200;DHT22;9732;52.498;5.408;2023-11-18T05:30:30;7.20;99.90
19200;DHT22;9732;52.498;5.408;2023-11-18T05:32:58;7.20;99.90
19200;DHT22;9732;52.498;5.408;2023-11-18T05:35:25;7.20;99.90
19200;DHT22;9732;52.498;5.408;2023-11-18T05:37:54;7.20;99.90
19200;DHT22;9732;52.498;5.408;2023-11-18T05:40:21;7.20;99.90
19200;DHT22;9732;52.498;5.408;2023-11-18T05:42:48;7.20;99.90
19200;DHT22;9732;52.498;5.408;2023-11-18T05:45:17;7.20;99.90
19200;DHT22;9732;52.498;5.408;2023-11-18T05:47:53;7.30;99.90
19200;DHT22;9732;52.498;5.408;2023-11-18T05:50:22;7.20;99.90
19200;DHT22;9732;52.498;5.408;2023-11-18T05:52:50;7.30;99.90
19200;DHT22;9732;52.498;5.408;2023-11-18T05:55:16;7.20;99.90
19200;DHT22;9732;52.498;5.408;2023-11-18T05:57:44;7.20;99.90
19200;DHT22;9732;52.498;5.408;2023-11-18T06:00:12;7.20;99.90
19200;DHT22;9732;52.498;5.408;2023-11-18T06:02:41;7.20;99.90
19200;DHT22;9732;52.498;5.408;2023-11-18T06:05:08;7.30;99.90
19200;DHT22;9732;52.498;5.408;2023-11-18T06:07:36;7.20;99.90
19200;DHT22;9732;52.498;5.408;2023-11-18T06:10:06;7.40;99.90
19200;DHT22;9732;52.498;5.408;2023-11-18T06:12:33;7.20;99.90
19200;DHT22;9732;52.498;5.408;2023-11-18T06:15:02;7.20;99.90
19200;DHT22;9732;52.498;5.408;2023-11-18T06:17:29;7.20;99.90
19200;DHT22;9732;52.498;5.408;2023-11-18T06:19:56;7.20;99.90
19200;DHT22;9732;52.498;5.408;2023-11-18T06:22:22;7.20;99.90
19200;DHT22;9732;52.498;5.408;2023-11-18T06:24:51;7.30;99.90
19200;DHT22;9732;52.498;5.408;2023-11-18T06:27:18;7.30;99.90
19200;DHT22;9732;52.498;5.408;2023-11-18T06:29:49;7.30;99.90
19200;DHT22;9732;52.498;5.408;2023-11-18T06:32:17;7.30;99.90
19200;DHT22;9732;52.498;5.408;2023-11-18T06:34:44;7.30;99.90
19200;DHT22;9732;52.498;5.408;2023-11-18T06:37:10;7.30;99.90
19200;DHT22;9732;52.498;5.408;2023-11-18T06:39:41;7.20;99.90
19200;DHT22;9732;52.498;5.408;2023-11-18T06:42:12;7.20;99.90
19200;DHT22;9732;52.498;5.408;2023-11-18T06:44:39;7.30;99.90
19200;DHT22;9732;52.498;5.408;2023-11-18T06:47:06;7.30;99.90
19200;DHT22;9732;52.498;5.408;2023-11-18T06:49:33;7.20;99.90
19200;DHT22;9732;52.498;5.408;2023-11-18T06:52:00;7.30;99.90
19200;DHT22;9732;52.498;5.408;2023-11-18T06:54:29;7.30;99.90
19200;DHT22;9732;52.498;5.408;2023-11-18T06:56:58;7.30;99.90
19200;DHT22;9732;52.498;5.408;2023-11-18T06:59:26;7.30;99.90
19200;DHT22;9732;52.498;5.408;2023-11-18T07:01:53;7.30;99.90
19200;DHT22;9732;52.498;5.408;2023-11-18T07:04:20;7.40;99.90
19200;DHT22;9732;52.498;5.408;2023-11-18T07:06:46;7.40;99.90
19200;DHT22;9732;52.498;5.408;2023-11-18T07:09:13;7.40;99.90
19200;DHT22;9732;52.498;5.408;2023-11-18T07:11:43;7.40;99.90
19200;DHT22;9732;52.498;5.408;2023-11-18T07:14:12;7.30;99.90
19200;DHT22;9732;52.498;5.408;2023-11-18T07:16:41;7.30;99.90
19200;DHT22;9732;52.498;5.408;2023-11-18T07:19:08;7.40;99.90
19200;DHT22;9732;52.498;5.408;2023-11-18T07:21:40;7.30;99.90
19200;DHT22;9732;52.498;5.408;2023-11-18T07:24:08;7.40;99.90
19200;DHT22;9732;52.498;5.408;2023-11-18T07:26:35;7.40;99.90
19200;DHT22;9732;52.498;5.408;2023-11-18T07:29:01;7.40;99.90
19200;DHT22;9732;52.498;5.408;2023-11-18T07:31:28;7.40;99.90
19200;DHT22;9732;52.498;5.408;2023-11-18T07:33:56;7.40;99.90
19200;DHT22;9732;52.498;5.408;2023-11-18T07:36:23;7.30;99.90
19200;DHT22;9732;52.498;5.408;2023-11-18T07:38:49;7.40;99.90
19200;DHT22;9732;52.498;5.408;2023-11-18T07:41:16;7.40;99.90
19200;DHT22;9732;52.498;5.408;2023-11-18T07:43:50;7.40;99.90
19200;DHT22;9732;52.498;5.408;2023-11-18T07:46:18;7.40;99.90
19200;DHT22;9732;52.498;5.408;2023-11-18T07:48:47;7.40;99.90
19200;DHT22;9732;52.498;5.408;2023-11-18T07:51:15;7.40;99.90
19200;DHT22;9732;52.498;5.408;2023-11-18T07:53:42;7.40;99.90
19200;DHT22;9732;52.498;5.408;2023-11-18T07:56:09;7.40;99.90
19200;DHT22;9732;52.498;5.408;2023-11-18T07:58:37;7.40;99.90
19200;DHT22;9732;52.498;5.408;2023-11-18T08:01:04;7.40;99.90
19200;DHT22;9732;52.498;5.408;2023-11-18T08:03:32;7.50;99.90
19200;DHT22;9732;52.498;5.408;2023-11-18T08:05:59;7.40;99.90
19200;DHT22;9732;52.498;5.408;2023-11-18T08:08:29;7.40;99.90
19200;DHT22;9732;52.498;5.408;2023-11-18T08:10:56;7.40;99.90
19200;DHT22;9732;52.498;5.408;2023-11-18T08:13:23;7.40;99.90
19200;DHT22;9732;52.498;5.408;2023-11-18T08:15:50;7.40;99.90
19200;DHT22;9732;52.498;5.408;2023-11-18T08:18:17;7.40;99.90
19200;DHT22;9732;52.498;5.408;2023-11-18T08:20:47;7.40;99.90
19200;DHT22;9732;52.498;5.408;2023-11-18T08:23:13;7.40;99.90
19200;DHT22;9732;52.498;5.408;2023-11-18T08:25:42;7.50;99.90
19200;DHT22;9732;52.498;5.408;2023-11-18T08:28:09;7.40;99.90
19200;DHT22;9732;52.498;5.408;2023-11-18T08:30:37;7.40;99.90
19200;DHT22;9732;52.498;5.408;2023-11-18T08:33:04;7.50;99.90
19200;DHT22;9732;52.498;5.408;2023-11-18T08:35:34;7.50;99.90
19200;DHT22;9732;52.498;5.408;2023-11-18T08:38:01;7.40;99.90
19200;DHT22;9732;52.498;5.408;2023-11-18T08:40:29;7.50;99.90
19200;DHT22;9732;52.498;5.408;2023-11-18T08:42:57;7.50;99.90
19200;DHT22;9732;52.498;5.408;2023-11-18T08:45:26;7.50;99.90
19200;DHT22;9732;52.498;5.408;2023-11-18T08:47:55;7.70;99.90
19200;DHT22;9732;52.498;5.408;2023-11-18T08:50:22;7.60;99.90
19200;DHT22;9732;52.498;5.408;2023-11-18T08:52:50;7.60;99.90
19200;DHT22;9732;52.498;5.408;2023-11-18T08:55:19;7.70;99.90
19200;DHT22;9732;52.498;5.408;2023-11-18T08:57:47;7.60;99.90
19200;DHT22;9732;52.498;5.408;2023-11-18T09:00:26;7.70;99.90
19200;DHT22;9732;52.498;5.408;2023-11-18T09:03:10;7.70;99.90
19200;DHT22;9732;52.498;5.408;2023-11-18T09:05:43;7.60;99.90
19200;DHT22;9732;52.498;5.408;2023-11-18T09:08:22;7.70;99.90
19200;DHT22;9732;52.498;5.408;2023-11-18T09:10:49;7.70;99.90
19200;DHT22;9732;52.498;5.408;2023-11-18T09:13:19;7.60;99.90
19200;DHT22;9732;52.498;5.408;2023-11-18T09:15:48;7.60;99.90
19200;DHT22;9732;52.498;5.408;2023-11-18T09:18:14;7.60;99.90
19200;DHT22;9732;52.498;5.408;2023-11-18T09:20:43;7.70;99.90
19200;DHT22;9732;52.498;5.408;2023-11-18T09:23:10;7.70;99.90
19200;DHT22;9732;52.498;5.408;2023-11-18T09:25:38;7.70;99.90
19200;DHT22;9732;52.498;5.408;2023-11-18T09:28:06;7.80;99.90
19200;DHT22;9732;52.498;5.408;2023-11-18T09:30:36;7.80;99.90
19200;DHT22;9732;52.498;5.408;2023-11-18T09:33:06;7.80;99.90
19200;DHT22;9732;52.498;5.408;2023-11-18T09:35:39;7.80;99.90
19200;DHT22;9732;52.498;5.408;2023-11-18T09:38:06;7.90;99.90
19200;DHT22;9732;52.498;5.408;2023-11-18T09:40:35;7.90;99.90
19200;DHT22;9732;52.498;5.408;2023-11-18T09:43:08;7.90;99.90
19200;DHT22;9732;52.498;5.408;2023-11-18T09:45:36;7.90;99.90
19200;DHT22;9732;52.498;5.408;2023-11-18T09:48:06;7.90;99.90
19200;DHT22;9732;52.498;5.408;2023-11-18T09:50:35;7.90;99.90
19200;DHT22;9732;52.498;5.408;2023-11-18T09:53:07;8.00;99.90
19200;DHT22;9732;52.498;5.408;2023-11-18T09:55:41;8.00;99.90
19200;DHT22;9732;52.498;5.408;2023-11-18T09:58:15;8.00;99.90
19200;DHT22;9732;52.498;5.408;2023-11-18T10:00:42;8.00;99.90
19200;DHT22;9732;52.498;5.408;2023-11-18T10:03:10;8.00;99.90
19200;DHT22;9732;52.498;5.408;2023-11-18T10:05:41;7.90;99.90
19200;DHT22;9732;52.498;5.408;2023-11-18T10:08:08;8.00;99.90
19200;DHT22;9732;52.498;5.408;2023-11-18T10:10:35;8.00;99.90
19200;DHT22;9732;52.498;5.408;2023-11-18T10:13:02;8.00;99.90
19200;DHT22;9732;52.498;5.408;2023-11-18T10:15:34;8.00;99.90
19200;DHT22;9732;52.498;5.408;2023-11-18T10:18:02;7.90;99.90
19200;DHT22;9732;52.498;5.408;2023-11-18T10:20:47;7.90;99.90
19200;DHT22;9732;52.498;5.408;2023-11-18T10:23:18;7.90;99.90
19200;DHT22;9732;52.498;5.408;2023-11-18T10:25:46;7.90;99.90
19200;DHT22;9732;52.498;5.408;2023-11-18T10:28:23;7.90;99.90
19200;DHT22;9732;52.498;5.408;2023-11-18T10:30:52;7.90;99.90
19200;DHT22;9732;52.498;5.408;2023-11-18T10:33:20;7.90;99.90
19200;DHT22;9732;52.498;5.408;2023-11-18T10:35:52;7.90;99.90
19200;DHT22;9732;52.498;5.408;2023-11-18T10:38:21;7.90;99.90
19200;DHT22;9732;52.498;5.408;2023-11-18T10:40:52;7.90;99.90
19200;DHT22;9732;52.498;5.408;2023-11-18T10:43:20;7.90;99.90
19200;DHT22;9732;52.498;5.408;2023-11-18T10:45:50;7.90;99.90
19200;DHT22;9732;52.498;5.408;2023-11-18T10:48:18;7.90;99.90
19200;DHT22;9732;52.498;5.408;2023-11-18T10:50:47;7.90;99.90
19200;DHT22;9732;52.498;5.408;2023-11-18T10:53:17;7.90;99.90
19200;DHT22;9732;52.498;5.408;2023-11-18T10:55:44;7.90;99.90
19200;DHT22;9732;52.498;5.408;2023-11-18T10:58:11;7.90;99.90
19200;DHT22;9732;52.498;5.408;2023-11-18T11:00:46;7.90;99.90
19200;DHT22;9732;52.498;5.408;2023-11-18T11:03:14;7.90;99.90
19200;DHT22;9732;52.498;5.408;2023-11-18T11:05:40;7.90;99.90
19200;DHT22;9732;52.498;5.408;2023-11-18T11:08:09;7.90;99.90
19200;DHT22;9732;52.498;5.408;2023-11-18T11:10:40;7.90;99.90
19200;DHT22;9732;52.498;5.408;2023-11-18T11:13:08;7.90;99.90
19200;DHT22;9732;52.498;5.408;2023-11-18T11:15:40;7.90;99.90
19200;DHT22;9732;52.498;5.408;2023-11-18T11:18:12;7.90;99.90
19200;DHT22;9732;52.498;5.408;2023-11-18T11:20:46;8.00;99.90
19200;DHT22;9732;52.498;5.408;2023-11-18T11:23:20;7.90;99.90
19200;DHT22;9732;52.498;5.408;2023-11-18T11:25:59;7.90;99.90
19200;DHT22;9732;52.498;5.408;2023-11-18T11:28:34;7.90;99.90
19200;DHT22;9732;52.498;5.408;2023-11-18T11:31:12;7.90;99.90
19200;DHT22;9732;52.498;5.408;2023-11-18T11:33:46;8.00;99.90
19200;DHT22;9732;52.498;5.408;2023-11-18T11:36:21;8.00;99.90
19200;DHT22;9732;52.498;5.408;2023-11-18T11:38:50;8.00;99.90
19200;DHT22;9732;52.498;5.408;2023-11-18T11:41:26;8.00;99.90
19200;DHT22;9732;52.498;5.408;2023-11-18T11:43:55;8.10;99.90
19200;DHT22;9732;52.498;5.408;2023-11-18T11:46:25;8.00;99.90
19200;DHT22;9732;52.498;5.408;2023-11-18T11:49:00;8.00;99.90
19200;DHT22;9732;52.498;5.408;2023-11-18T11:51:39;8.00;99.90
19200;DHT22;9732;52.498;5.408;2023-11-18T11:54:12;8.10;99.90
19200;DHT22;9732;52.498;5.408;2023-11-18T11:56:46;8.00;99.90
19200;DHT22;9732;52.498;5.408;2023-11-18T11:59:15;8.10;99.90
19200;DHT22;9732;52.498;5.408;2023-11-18T12:01:42;8.10;99.90
19200;DHT22;9732;52.498;5.408;2023-11-18T12:04:12;8.10;99.90
19200;DHT22;9732;52.498;5.408;2023-11-18T12:06:47;8.10;99.90
19200;DHT22;9732;52.498;5.408;2023-11-18T12:09:18;8.10;99.90
19200;DHT22;9732;52.498;5.408;2023-11-18T12:11:47;8.10;99.90
19200;DHT22;9732;52.498;5.408;2023-11-18T12:14:16;8.10;99.90
19200;DHT22;9732;52.498;5.408;2023-11-18T12:17:00;8.10;99.90
19200;DHT22;9732;52.498;5.408;2023-11-18T12:19:33;8.10;99.90
19200;DHT22;9732;52.498;5.408;2023-11-18T12:22:11;8.10;99.90
19200;DHT22;9732;52.498;5.408;2023-11-18T12:24:44;8.10;99.90
19200;DHT22;9732;52.498;5.408;2023-11-18T12:27:13;8.10;99.90
19200;DHT22;9732;52.498;5.408;2023-11-18T12:29:43;8.10;99.90
19200;DHT22;9732;52.498;5.408;2023-11-18T12:32:10;8.10;99.90
19200;DHT22;9732;52.498;5.408;2023-11-18T12:34:51;8.10;99.90
19200;DHT22;9732;52.498;5.408;2023-11-18T12:37:45;8.20;99.90
19200;DHT22;9732;52.498;5.408;2023-11-18T12:40:36;8.20;99.90
19200;DHT22;9732;52.498;5.408;2023-11-18T12:43:15;8.20;99.90
19200;DHT22;9732;52.498;5.408;2023-11-18T12:48:43;8.20;99.90
19200;DHT22;9732;52.498;5.408;2023-11-18T12:51:12;8.20;99.90
19200;DHT22;9732;52.498;5.408;2023-11-18T12:53:46;8.30;99.90
19200;DHT22;9732;52.498;5.408;2023-11-18T12:56:15;8.30;99.90
19200;DHT22;9732;52.498;5.408;2023-11-18T12:58:43;8.30;99.90
19200;DHT22;9732;52.498;5.408;2023-11-18T13:01:10;8.30;99.90
19200;DHT22;9732;52.498;5.408;2023-11-18T13:03:39;8.30;99.90
19200;DHT22;9732;52.498;5.408;2023-11-18T13:06:07;8.30;99.90
19200;DHT22;9732;52.498;5.408;2023-11-18T13:08:34;8.20;99.90
19200;DHT22;9732;52.498;5.408;2023-11-18T13:11:02;8.30;99.90
19200;DHT22;9732;52.498;5.408;2023-11-18T13:13:30;8.30;99.90
19200;DHT22;9732;52.498;5.408;2023-11-18T13:15:58;8.40;99.90
19200;DHT22;9732;52.498;5.408;2023-11-18T13:18:25;8.30;99.90
19200;DHT22;9732;52.498;5.408;2023-11-18T13:20:55;8.30;99.90
19200;DHT22;9732;52.498;5.408;2023-11-18T13:23:25;8.40;99.90
19200;DHT22;9732;52.498;5.408;2023-11-18T13:25:54;8.40;99.90
19200;DHT22;9732;52.498;5.408;2023-11-18T13:28:22;8.40;99.90
19200;DHT22;9732;52.498;5.408;2023-11-18T13:30:49;8.40;99.90
19200;DHT22;9732;52.498;5.408;2023-11-18T13:33:18;8.40;99.90
19200;DHT22;9732;52.498;5.408;2023-11-18T13:35:45;8.40;99.90
19200;DHT22;9732;52.498;5.408;2023-11-18T13:38:12;8.40;99.90
19200;DHT22;9732;52.498;5.408;2023-11-18T13:40:43;8.40;99.90
19200;DHT22;9732;52.498;5.408;2023-11-18T13:43:10;8.40;99.90
19200;DHT22;9732;52.498;5.408;2023-11-18T13:45:37;8.40;99.90
19200;DHT22;9732;52.498;5.408;2023-11-18T13:48:05;8.40;99.90
19200;DHT22;9732;52.498;5.408;2023-11-18T13:50:35;8.50;99.90
19200;DHT22;9732;52.498;5.408;2023-11-18T13:53:03;8.40;99.90
19200;DHT22;9732;52.498;5.408;2023-11-18T13:55:31;8.40;99.90
19200;DHT22;9732;52.498;5.408;2023-11-18T13:57:59;8.50;99.90
19200;DHT22;9732;52.498;5.408;2023-11-18T14:00:26;8.50;99.90
19200;DHT22;9732;52.498;5.408;2023-11-18T14:02:55;8.40;99.90
19200;DHT22;9732;52.498;5.408;2023-11-18T14:05:23;8.60;99.90
19200;DHT22;9732;52.498;5.408;2023-11-18T14:07:55;8.50;99.90
19200;DHT22;9732;52.498;5.408;2023-11-18T14:10:24;8.50;99.90
19200;DHT22;9732;52.498;5.408;2023-11-18T14:13:01;8.50;99.90
19200;DHT22;9732;52.498;5.408;2023-11-18T14:15:29;8.50;99.90
19200;DHT22;9732;52.498;5.408;2023-11-18T14:17:56;8.50;99.90
19200;DHT22;9732;52.498;5.408;2023-11-18T14:20:23;8.50;99.90
19200;DHT22;9732;52.498;5.408;2023-11-18T14:22:50;8.50;99.90
19200;DHT22;9732;52.498;5.408;2023-11-18T14:25:18;8.50;99.90
19200;DHT22;9732;52.498;5.408;2023-11-18T14:27:51;8.50;99.90
19200;DHT22;9732;52.498;5.408;2023-11-18T14:30:20;8.50;99.90
19200;DHT22;9732;52.498;5.408;2023-11-18T14:32:51;8.50;99.90
19200;DHT22;9732;52.498;5.408;2023-11-18T14:35:19;8.50;99.90
19200;DHT22;9732;52.498;5.408;2023-11-18T14:37:46;8.50;99.90
19200;DHT22;9732;52.498;5.408;2023-11-18T14:40:13;8.50;99.90
19200;DHT22;9732;52.498;5.408;2023-11-18T14:42:42;8.50;99.90
19200;DHT22;9732;52.498;5.408;2023-11-18T14:45:12;8.50;99.90
19200;DHT22;9732;52.498;5.408;2023-11-18T14:47:39;8.50;99.90
19200;DHT22;9732;52.498;5.408;2023-11-18T14:50:06;8.60;99.90
19200;DHT22;9732;52.498;5.408;2023-11-18T14:52:44;8.50;99.90
19200;DHT22;9732;52.498;5.408;2023-11-18T14:55:13;8.50;99.90
19200;DHT22;9732;52.498;5.408;2023-11-18T14:57:45;8.60;99.90
19200;DHT22;9732;52.498;5.408;2023-11-18T15:00:13;8.50;99.90
19200;DHT22;9732;52.498;5.408;2023-11-18T15:02:49;8.50;99.90
19200;DHT22;9732;52.498;5.408;2023-11-18T15:05:17;8.60;99.90
19200;DHT22;9732;52.498;5.408;2023-11-18T15:07:45;8.50;99.90
19200;DHT22;9732;52.498;5.408;2023-11-18T15:10:20;8.50;99.90
19200;DHT22;9732;52.498;5.408;2023-11-18T15:12:56;8.50;99.90
19200;DHT22;9732;52.498;5.408;2023-11-18T15:15:46;8.60;99.90
19200;DHT22;9732;52.498;5.408;2023-11-18T15:18:14;8.50;99.90
19200;DHT22;9732;52.498;5.408;2023-11-18T15:20:43;8.50;99.90
19200;DHT22;9732;52.498;5.408;2023-11-18T15:23:10;8.60;99.90
19200;DHT22;9732;52.498;5.408;2023-11-18T15:25:38;8.60;99.90
19200;DHT22;9732;52.498;5.408;2023-11-18T15:28:06;8.60;99.90
19200;DHT22;9732;52.498;5.408;2023-11-18T15:30:35;8.70;99.90
19200;DHT22;9732;52.498;5.408;2023-11-18T15:33:02;8.60;99.90
19200;DHT22;9732;52.498;5.408;2023-11-18T15:35:29;8.50;99.90
19200;DHT22;9732;52.498;5.408;2023-11-18T15:37:57;8.50;99.90
19200;DHT22;9732;52.498;5.408;2023-11-18T15:40:24;8.60;99.90
19200;DHT22;9732;52.498;5.408;2023-11-18T15:42:51;8.60;99.90
19200;DHT22;9732;52.498;5.408;2023-11-18T15:45:21;8.60;99.90
19200;DHT22;9732;52.498;5.408;2023-11-18T15:47:52;8.60;99.90
19200;DHT22;9732;52.498;5.408;2023-11-18T15:50:19;8.60;99.90
19200;DHT22;9732;52.498;5.408;2023-11-18T15:52:48;8.70;99.90
19200;DHT22;9732;52.498;5.408;2023-11-18T15:55:17;8.60;99.90
19200;DHT22;9732;52.498;5.408;2023-11-18T15:57:45;8.60;99.90
19200;DHT22;9732;52.498;5.408;2023-11-18T16:00:20;8.60;99.90
19200;DHT22;9732;52.498;5.408;2023-11-18T16:02:48;8.60;99.90
19200;DHT22;9732;52.498;5.408;2023-11-18T16:05:16;8.70;99.90
19200;DHT22;9732;52.498;5.408;2023-11-18T16:07:44;8.60;99.90
19200;DHT22;9732;52.498;5.408;2023-11-18T16:10:11;8.60;99.90
19200;DHT22;9732;52.498;5.408;2023-11-18T16:12:43;8.60;99.90
19200;DHT22;9732;52.498;5.408;2023-11-18T16:15:10;8.60;99.90
19200;DHT22;9732;52.498;5.408;2023-11-18T16:17:40;8.60;99.90
19200;DHT22;9732;52.498;5.408;2023-11-18T16:20:08;8.60;99.90